• Join FlightAware (Why Join?)
  • Login
  • US Flag 
03:21PM EDT


 

Airport Tracker/Info


-or-


 

Live Flight TrackerFlight Track Log ✈ AWI3704 ✈ 15-Jun-2013 ✈ KPHL - KALB

Flight Track Log - Related Links

Times and Time Zones

All times are in EDT time to prevent confusion due to time zone crossing. See the AWI3704 flight status page for this flight to view local times or setup timezone preferences in your user account.

Time Position Orientation Groundspeed Altitude Reporting Facility
EDT Latitude Longitude Course Direction KTS MPH feet Rate Location/Type
11:04AM 39.8667 -75.2833 37° Northeast 159 183 900  Level Philadelphia TRACON
11:04AM 39.8500 -75.3000 218° Southwest 172 198 1,500 2,040 Climbing Philadelphia TRACON
11:05AM 39.8000 -75.3500 218° Southwest 216 249 3,800 1,980 Climbing Philadelphia TRACON
11:06AM 39.8167 -74.9130 90° East  Level FlightAware Approximate
11:06AM 39.7333 -75.3833 201° Southwest 275 316 5,700  Level Philadelphia TRACON
11:07AM 39.8039 -74.8026 105° East  Level FlightAware Approximate
11:07AM 39.6667 -75.3333 150° Southeast 300 345 8,100  Level Philadelphia TRACON
11:08AM 39.7873 -74.6961 37° Northeast  Level FlightAware Approximate
11:08AM 39.6333 -75.2333 113° Southeast 312 359 9,900  Level Philadelphia TRACON
11:09AM 39.8558 -74.6276 37° Northeast  Level FlightAware Approximate
11:10AM 39.7039 -75.0044 68° East 374 430 12,000  Level New York Center
11:11AM 39.7417 -74.8825 68° East 368 423 12,000 360 Level New York Center
11:12AM 39.7817 -74.7553 68° East 368 423 12,800 780 Climbing New York Center
11:13AM 39.8472 -74.6644 47° Northeast 342 394 13,600 1,260 Climbing New York Center
11:14AM 39.9267 -74.5875 37° Northeast 342 394 15,300 1,500 Climbing New York Center
11:15AM 40.0064 -74.5078 37° Northeast 344 396 16,700 1,320 Climbing New York Center
11:16AM 40.0881 -74.4281 37° Northeast 364 419 18,000 1,140 Climbing New York Center
11:17AM 40.1700 -74.3456 38° Northeast 372 428 19,100 960 Climbing New York Center
11:18AM 40.2536 -74.2628 37° Northeast 372 428 20,000 960 Climbing New York Center
11:19AM 40.3456 -74.1886 32° Northeast 378 435 21,100 900 Climbing New York Center
11:21AM 40.5467 -74.0406 29° Northeast 377 434 23,000 780 Climbing Boston Center
11:22AM 40.6456 -73.9772 26° Northeast 383 441 23,700 480 Climbing Boston Center
11:23AM 40.7425 -73.9056 29° Northeast 388 447 24,000 120 Climbing Boston Center
11:24AM 40.8331 -73.8144 37° Northeast 399 459 24,000 -300 Level Boston Center
11:25AM 40.9178 -73.7172 41° Northeast 404 465 23,500 -540 Descending Boston Center
11:26AM 41.0103 -73.6447 31° Northeast 399 459 23,000 -300 Descending Boston Center
11:27AM 41.0964 -73.5747 31° Northeast 378 435 22,900 -900 Descending Boston Center
11:28AM 41.1867 -73.4992 32° Northeast 373 429 21,300 -1,680 Descending Boston Center
11:29AM 41.2747 -73.4344 29° Northeast 368 423 19,600 -1,620 Descending Boston Center
11:30AM 41.3747 -73.4414 357° North 329 379 18,100 -840 Descending Boston Center
11:31AM 41.4517 -73.4539 353° North 323 372 18,000 -300 Descending Boston Center
11:32AM 41.5433 -73.4608 357° North 303 349 17,500 -840 Descending Boston Center
11:33AM 41.6206 -73.4703 355° North 297 342 16,400 -1,200 Descending Boston Center
11:34AM 41.7100 -73.4800 355° North 297 342 15,100 -1,200 Descending Boston Center
11:35AM 41.7869 -73.4897 355° North 302 348 14,000 -1,200 Descending Boston Center
11:37AM 41.8994 -73.5028 355° North 307 353 12,500 -1,320 Descending Boston Center
11:38AM 41.9828 -73.5125 355° North 307 353 11,200 -960 Descending Boston Center
11:38AM 42.0306 -73.5189 354° North 305 351 11,100 -120 Descending Boston Center
11:39AM 42.0681 -73.5225 356° North 312 359 11,100  Level Boston Center
11:39AM 42.1158 -73.5261 357° North 309 356 11,100  Level Boston Center
11:40AM 42.1536 -73.5211 North 312 359 11,100 -300 Level Boston Center
11:40AM 42.2158 -73.5475 343° North 305 351 10,800 -600 Descending Boston Center
11:41AM 42.2322 -73.5617 327° Northwest 306 352 10,500 -1,200 Descending Boston Center
11:41AM 42.2819 -73.5961 333° Northwest 264 304 9,600 -1,680 Descending Boston Center
11:42AM 42.3400 -73.6394 331° Northwest 245 282 7,700 -1,920 Descending Boston Center
11:43AM 42.3522 -73.6481 332° Northwest 256 295 7,300 -1,980 Descending Boston Center
11:43AM 42.4019 -73.6828 333° Northwest 249 287 5,700 -2,220 Descending Boston Center
11:44AM 42.4206 -73.6944 335° Northwest 251 289 5,100 -1,980 Descending Boston Center
11:44AM 42.4639 -73.7292 329° Northwest 249 287 3,700 -1,800 Descending Boston Center
11:45AM 42.4742 -73.7378 328° Northwest 251 289 3,300 -840 Descending Boston Center
11:45AM 42.5219 -73.7725 332° Northwest 247 284 2,900 -840 Descending Boston Center
11:46AM 42.5383 -73.7814 338° Northwest 246 283 2,500 -1,380 Descending Boston Center